createdAt,value
2022-11-12T00:00:59.508Z,102333.78
2022-11-12T00:03:46.677Z,102329.38
2022-11-12T00:06:33.743Z,102331.97
2022-11-12T00:09:22.167Z,102329.31
2022-11-12T00:12:09.103Z,102340.69
2022-11-12T00:14:56.287Z,102329.19
2022-11-12T00:17:43.945Z,102331.81
2022-11-12T00:20:30.988Z,102333.50
2022-11-12T00:23:18.008Z,102325.59
2022-11-12T00:26:06.442Z,102333.53
2022-11-12T00:28:53.764Z,102330.16
2022-11-12T00:31:40.761Z,102325.69
2022-11-12T00:34:28.093Z,102337.06
2022-11-12T00:37:15.284Z,102325.56
2022-11-12T00:40:02.128Z,102327.16
2022-11-12T00:42:52.451Z,102323.59
2022-11-12T00:45:39.621Z,102326.22
2022-11-12T00:48:27.112Z,102327.03
2022-11-12T00:51:14.789Z,102324.34
2022-11-12T00:54:01.826Z,102325.09
2022-11-12T00:56:49.402Z,102317.09
2022-11-12T00:59:37.975Z,102316.97
2022-11-12T01:02:24.941Z,102315.16
2022-11-12T01:05:11.928Z,102321.25
2022-11-12T01:07:59.067Z,102317.69
2022-11-12T01:10:46.156Z,102313.28
2022-11-12T01:13:33.069Z,102316.78
2022-11-12T01:16:23.992Z,102312.38
2022-11-12T01:19:12.576Z,102315.00
2022-11-12T01:21:59.787Z,102310.69
2022-11-12T01:24:46.859Z,102308.88
2022-11-12T01:27:35.469Z,102305.28
2022-11-12T01:30:22.749Z,102310.56
2022-11-12T01:33:11.589Z,102307.94
2022-11-12T01:36:00.729Z,102309.66
2022-11-12T01:38:49.211Z,102309.75
2022-11-12T01:41:38.471Z,102320.31
2022-11-12T01:44:27.612Z,102317.59
2022-11-12T01:47:21.473Z,102320.22
2022-11-12T01:50:18.982Z,102320.13
2022-11-12T01:53:09.690Z,102317.44
2022-11-12T01:55:57.979Z,102326.06
2022-11-12T01:58:47.898Z,102322.44
2022-11-12T02:01:36.219Z,102331.00
2022-11-12T02:04:24.135Z,102329.94
2022-11-12T02:07:14.224Z,102334.31
2022-11-12T02:10:03.169Z,102336.00
2022-11-12T02:13:09.390Z,102329.75
2022-11-12T02:15:57.588Z,102324.38
2022-11-12T02:18:44.579Z,102332.22
2022-11-12T02:21:33.499Z,102331.31
2022-11-12T02:24:37.895Z,102335.63
2022-11-12T02:27:25.819Z,102341.88
2022-11-12T02:30:13.610Z,102335.78
2022-11-12T02:33:01.441Z,102336.63
2022-11-12T02:35:48.927Z,102342.72
2022-11-12T02:38:37.622Z,102346.97
2022-11-12T02:41:25.023Z,102347.81
2022-11-12T02:44:12.092Z,102353.84
2022-11-12T02:46:59.481Z,102356.59
2022-11-12T02:49:46.691Z,102358.44
2022-11-12T02:52:33.807Z,102364.56
2022-11-12T02:55:22.399Z,102356.59
2022-11-12T02:58:09.837Z,102371.44
2022-11-12T03:00:57.611Z,102369.50
2022-11-12T03:03:44.567Z,102364.03
2022-11-12T03:06:31.578Z,102372.63
2022-11-12T03:09:18.651Z,102372.47
2022-11-12T03:12:07.712Z,102376.72
2022-11-12T03:14:54.878Z,102379.34
2022-11-12T03:17:41.865Z,102380.22
2022-11-12T03:20:30.021Z,102386.31
2022-11-12T03:23:17.235Z,102386.28
2022-11-12T03:26:04.797Z,102383.53
2022-11-12T03:28:54.096Z,102390.44
2022-11-12T03:31:41.499Z,102394.75
2022-11-12T03:34:28.460Z,102390.28
2022-11-12T03:37:15.613Z,102398.03
2022-11-12T03:40:02.554Z,102398.88
2022-11-12T03:42:50.496Z,102401.50
2022-11-12T03:45:38.691Z,102391.00
2022-11-12T03:48:26.046Z,102397.19
2022-11-12T03:51:16.312Z,102396.41
2022-11-12T03:54:03.445Z,102390.34
2022-11-12T03:56:50.521Z,102387.72
2022-11-12T03:59:37.579Z,102395.53
2022-11-12T04:02:26.694Z,102387.53
2022-11-12T04:05:31.984Z,102394.47
2022-11-12T04:08:39.315Z,102392.56
2022-11-12T04:11:26.545Z,102392.50
2022-11-12T04:14:12.845Z,102386.41
2022-11-12T04:17:17.325Z,102378.38
2022-11-12T04:20:32.378Z,102379.00
2022-11-12T04:23:19.723Z,102382.38
2022-11-12T04:26:24.348Z,102369.22
2022-11-12T04:29:28.447Z,102375.25
2022-11-12T04:32:15.840Z,102364.66
2022-11-12T04:35:05.527Z,102368.97
2022-11-12T04:37:53.248Z,102369.69
2022-11-12T04:40:57.882Z,102367.06
2022-11-12T04:44:02.561Z,102364.38
2022-11-12T04:46:49.748Z,102373.09
2022-11-12T04:49:36.869Z,102376.59
2022-11-12T04:52:25.513Z,102372.13
2022-11-12T04:55:12.938Z,102372.00
2022-11-12T04:58:01.154Z,102369.09
2022-11-12T05:00:48.449Z,102371.69
2022-11-12T05:03:35.430Z,102362.88
2022-11-12T05:06:39.867Z,102369.84
2022-11-12T05:09:30.227Z,102366.22
2022-11-12T05:12:17.379Z,102375.81
2022-11-12T05:15:04.934Z,102369.66
2022-11-12T05:17:52.683Z,102366.16
2022-11-12T05:20:40.145Z,102372.22
2022-11-12T05:23:27.161Z,102375.69
2022-11-12T05:26:15.362Z,102375.75
2022-11-12T05:29:07.602Z,102370.44
2022-11-12T05:31:55.992Z,102373.97
2022-11-12T05:34:43.371Z,102373.00
2022-11-12T05:37:31.067Z,102372.16
2022-11-12T05:40:18.386Z,102381.75
2022-11-12T05:43:06.737Z,102380.94
2022-11-12T05:45:53.858Z,102387.91
2022-11-12T05:48:41.008Z,102394.16
2022-11-12T05:51:28.004Z,102395.94
2022-11-12T05:54:15.773Z,102391.66
2022-11-12T05:57:04.077Z,102397.00
2022-11-12T05:59:52.486Z,102399.72
2022-11-12T06:02:39.630Z,102398.81
2022-11-12T06:05:27.270Z,102412.09
2022-11-12T06:08:14.630Z,102413.00
2022-11-12T06:11:01.610Z,102412.94
2022-11-12T06:13:48.656Z,102416.41
2022-11-12T06:16:37.108Z,102414.66
2022-11-12T06:19:24.165Z,102424.19
2022-11-12T06:22:11.106Z,102431.22
2022-11-12T06:24:58.244Z,102432.06
2022-11-12T06:27:45.383Z,102440.81
2022-11-12T06:30:32.330Z,102430.41
2022-11-12T06:33:21.186Z,102442.72
2022-11-12T06:36:11.349Z,102397.47
2022-11-12T06:38:58.532Z,102437.56
2022-11-12T06:41:45.497Z,102434.09
2022-11-12T06:44:32.687Z,102432.44
2022-11-12T06:47:19.858Z,102433.44
2022-11-12T06:50:08.926Z,102427.31
2022-11-12T06:53:00.105Z,102432.63
2022-11-12T06:55:47.407Z,102433.53
2022-11-12T06:58:34.960Z,102434.41
2022-11-12T07:01:21.905Z,102438.81
2022-11-12T07:04:10.480Z,102438.03
2022-11-12T07:06:59.148Z,102440.72
2022-11-12T07:09:46.384Z,102438.19
2022-11-12T07:12:33.403Z,102432.16
2022-11-12T07:15:20.274Z,102441.84
2022-11-12T07:18:07.377Z,102438.47
2022-11-12T07:20:58.163Z,102449.09
2022-11-12T07:23:47.501Z,102446.50
2022-11-12T07:26:34.634Z,102453.63
2022-11-12T07:29:42.636Z,102454.72
2022-11-12T07:32:28.730Z,102461.97
2022-11-12T07:35:16.064Z,102460.47
2022-11-12T07:38:03.348Z,102456.25
2022-11-12T07:40:51.568Z,102457.28
2022-11-12T07:43:40.308Z,102451.22
2022-11-12T07:46:28.857Z,102460.16
2022-11-12T07:49:16.454Z,102459.44
2022-11-12T07:52:03.590Z,102455.19
2022-11-12T07:54:50.708Z,102457.97
2022-11-12T07:57:39.099Z,102448.50
2022-11-12T08:00:26.041Z,102453.13
2022-11-12T08:03:12.937Z,102459.47
2022-11-12T08:06:01.830Z,102460.63
2022-11-12T08:08:52.787Z,102473.13
2022-11-12T08:11:44.632Z,102468.94
2022-11-12T08:14:36.074Z,102463.00
2022-11-12T08:17:23.695Z,102476.41
2022-11-12T08:20:12.488Z,102460.00
2022-11-12T08:23:02.014Z,102467.28
2022-11-12T08:25:49.099Z,102476.38
2022-11-12T08:28:37.704Z,102481.03
2022-11-12T08:31:26.873Z,102475.97
2022-11-12T08:34:18.537Z,102475.22
2022-11-12T08:37:05.971Z,102481.47
2022-11-12T08:39:53.648Z,102481.69
2022-11-12T08:42:41.254Z,102475.78
2022-11-12T08:45:29.120Z,102481.25
2022-11-12T08:48:17.391Z,102477.91
2022-11-12T08:51:05.689Z,102476.28
2022-11-12T08:53:52.940Z,102486.97
2022-11-12T08:56:40.142Z,102480.97
2022-11-12T08:59:27.300Z,102475.13
2022-11-12T09:02:14.554Z,102471.06
2022-11-12T09:05:03.424Z,102478.41
2022-11-12T09:07:57.601Z,102474.25
2022-11-12T09:10:45.515Z,102481.47
2022-11-12T09:13:33.368Z,102467.56
2022-11-12T09:16:21.362Z,102477.38
2022-11-12T09:19:09.568Z,102473.06
2022-11-12T09:21:58.795Z,102480.28
2022-11-12T09:24:46.399Z,102467.97
2022-11-12T09:27:33.900Z,102470.88
2022-11-12T09:30:21.102Z,102467.47
2022-11-12T09:33:08.915Z,102469.44
2022-11-12T09:35:57.081Z,102474.91
2022-11-12T09:38:46.453Z,102469.72
2022-11-12T09:41:38.159Z,102479.53
2022-11-12T09:44:25.724Z,102472.66
2022-11-12T09:47:20.314Z,102476.31
2022-11-12T09:50:19.935Z,102470.31
2022-11-12T09:53:17.441Z,102477.50
2022-11-12T09:56:11.667Z,102485.56
2022-11-12T09:58:59.428Z,102478.56
2022-11-12T10:01:56.179Z,102469.84
2022-11-12T10:04:59.840Z,102468.97
2022-11-12T10:08:07.075Z,102472.66
2022-11-12T10:11:05.045Z,102463.97
2022-11-12T10:14:04.132Z,102464.09
2022-11-12T10:17:00.750Z,102464.22
2022-11-12T10:20:14.551Z,102464.34
2022-11-12T10:23:16.406Z,102461.72
2022-11-12T10:26:14.769Z,102476.75
2022-11-12T10:29:19.057Z,102384.59
2022-11-12T10:32:06.290Z,102463.69
2022-11-12T10:34:53.709Z,102452.28
2022-11-12T10:37:49.029Z,102458.47
2022-11-12T10:40:38.671Z,102455.91
2022-11-12T10:43:26.686Z,102448.00
2022-11-12T10:46:22.022Z,102455.25
2022-11-12T10:52:26.720Z,102445.63
2022-11-12T10:55:18.916Z,102448.28
2022-11-12T10:58:13.727Z,102456.34
2022-11-12T11:01:04.260Z,102451.13
2022-11-12T11:03:57.998Z,102455.56
2022-11-12T11:06:45.369Z,102459.19
2022-11-12T11:09:33.025Z,102448.59
2022-11-12T11:12:29.254Z,102455.78
2022-11-12T11:15:21.963Z,102455.84
2022-11-12T11:18:14.308Z,102457.59
2022-11-12T11:21:17.737Z,102453.25
2022-11-12T11:24:20.769Z,102461.22
2022-11-12T11:27:19.004Z,102454.16
2022-11-12T11:30:11.960Z,102465.72
2022-11-12T11:33:27.565Z,102469.25
2022-11-12T11:36:32.702Z,102468.41
2022-11-12T11:39:34.645Z,102462.22
2022-11-12T11:42:49.547Z,102467.63
2022-11-12T11:45:52.464Z,102465.88
2022-11-12T11:48:52.203Z,102464.13
2022-11-12T11:51:49.424Z,102461.44
2022-11-12T11:54:54.048Z,102459.66
2022-11-12T11:57:59.483Z,102458.84
2022-11-12T12:00:55.005Z,102445.66
2022-11-12T12:03:58.759Z,102461.56
2022-11-12T12:06:59.008Z,102450.03
2022-11-12T12:09:55.975Z,102433.34
2022-11-12T12:12:55.982Z,102323.41
2022-11-12T12:16:18.818Z,102436.94
2022-11-12T12:19:14.826Z,102436.97
2022-11-12T12:22:06.875Z,102428.97
2022-11-12T12:24:58.278Z,102423.69
2022-11-12T12:27:53.503Z,102426.34
2022-11-12T12:30:46.558Z,102422.81
2022-11-12T12:33:43.237Z,102379.41
2022-11-12T12:36:36.281Z,102419.34
2022-11-12T12:39:31.504Z,102412.28
2022-11-12T12:42:28.887Z,102423.78
2022-11-12T12:45:36.452Z,102413.19
2022-11-12T12:48:29.824Z,102407.00
2022-11-12T12:51:17.758Z,102404.34
2022-11-12T12:54:04.967Z,102417.59
2022-11-12T12:56:53.914Z,102401.66
2022-11-12T12:59:41.514Z,102406.06
2022-11-12T13:02:28.809Z,102417.56
2022-11-12T13:05:30.854Z,102401.66
2022-11-12T13:08:24.735Z,102405.19
2022-11-12T13:11:52.140Z,102398.13
2022-11-12T13:15:12.851Z,102399.94
2022-11-12T13:18:00.286Z,102396.41
2022-11-12T13:21:09.309Z,102384.00
2022-11-12T13:24:11.126Z,102401.66
2022-11-12T13:26:59.724Z,102403.47
2022-11-12T13:29:48.866Z,102405.22
2022-11-12T13:32:43.525Z,102414.91
2022-11-12T13:35:34.856Z,102401.72
2022-11-12T13:38:22.431Z,102417.59
2022-11-12T13:41:16.253Z,102399.97
2022-11-12T13:44:08.623Z,102403.44
2022-11-12T13:46:57.385Z,102417.56
2022-11-12T13:49:48.688Z,102401.63
2022-11-12T13:52:36.515Z,102396.34
2022-11-12T13:55:24.679Z,102407.78
2022-11-12T13:58:21.755Z,102396.25
2022-11-12T14:01:12.249Z,102397.06
2022-11-12T14:03:59.609Z,102398.84
2022-11-12T14:06:51.042Z,102398.78
2022-11-12T14:10:01.080Z,102373.84
2022-11-12T14:13:22.520Z,102407.47
2022-11-12T14:16:39.098Z,102397.84
2022-11-12T14:20:11.281Z,102398.63
2022-11-12T14:23:10.481Z,102382.63
2022-11-12T14:25:58.430Z,102397.69
2022-11-12T14:28:45.896Z,102390.56
2022-11-12T14:31:33.112Z,102392.22
2022-11-12T14:34:28.590Z,102389.59
2022-11-12T14:37:41.387Z,102384.28
2022-11-12T14:40:34.928Z,102343.47
2022-11-12T14:43:30.936Z,102394.72
2022-11-12T14:46:27.846Z,102387.56
2022-11-12T14:49:23.951Z,102380.41
2022-11-12T14:52:17.827Z,102389.09
2022-11-12T14:55:11.162Z,102387.25
2022-11-12T14:58:00.288Z,102381.00
2022-11-12T15:00:49.449Z,102389.66
2022-11-12T15:03:36.688Z,102388.81
2022-11-12T15:06:32.093Z,102330.22
2022-11-12T15:09:21.955Z,102387.72
2022-11-12T15:12:14.197Z,102368.34
2022-11-12T15:15:21.016Z,102378.69
2022-11-12T15:18:16.124Z,102377.78
2022-11-12T15:21:13.863Z,102375.91
2022-11-12T15:24:16.460Z,102376.69
2022-11-12T15:27:19.938Z,102381.72
2022-11-12T15:30:17.306Z,102372.63
2022-11-12T15:33:18.445Z,102377.63
2022-11-12T15:36:06.422Z,102372.94
2022-11-12T15:38:55.043Z,102373.69
2022-11-12T15:41:42.601Z,102366.66
2022-11-12T15:44:36.245Z,102372.84
2022-11-12T15:47:24.876Z,102364.97
2022-11-12T15:50:18.748Z,102368.63
2022-11-12T15:53:06.120Z,102366.72
2022-11-12T15:55:54.020Z,102364.75
2022-11-12T15:58:41.269Z,102369.78
2022-11-12T16:01:28.457Z,102364.38
2022-11-12T16:04:16.806Z,102367.78
2022-11-12T16:07:06.833Z,102363.47
2022-11-12T16:09:54.263Z,102357.16
2022-11-12T16:12:42.086Z,102361.41
2022-11-12T16:15:29.502Z,102356.03
2022-11-12T16:18:16.703Z,102354.34
2022-11-12T16:21:06.215Z,102352.41
2022-11-12T16:23:53.442Z,102351.44
2022-11-12T16:26:40.976Z,102361.09
2022-11-12T16:29:28.700Z,102355.88
2022-11-12T16:32:15.985Z,102361.00
2022-11-12T16:35:03.255Z,102350.34
2022-11-12T16:37:53.672Z,102365.19
2022-11-12T16:40:41.332Z,102363.38
2022-11-12T16:43:28.735Z,102366.69
2022-11-12T16:46:22.119Z,102367.72
2022-11-12T16:49:13.352Z,102361.59
2022-11-12T16:52:00.720Z,102367.75
2022-11-12T16:54:49.757Z,102372.00
2022-11-12T16:57:36.821Z,102363.06
2022-11-12T17:00:24.442Z,102363.69
2022-11-12T17:03:13.850Z,102364.56
2022-11-12T17:06:00.944Z,102369.84
2022-11-12T17:08:48.294Z,102360.84
2022-11-12T17:11:37.075Z,102366.06
2022-11-12T17:14:28.116Z,102367.72
2022-11-12T17:17:16.153Z,102372.03
2022-11-12T17:20:03.341Z,102372.03
2022-11-12T17:22:50.563Z,102373.63
2022-11-12T17:25:38.000Z,102377.97
2022-11-12T17:28:26.338Z,102372.72
2022-11-12T17:31:15.775Z,102370.84
2022-11-12T17:34:22.879Z,102383.16
2022-11-12T17:37:09.914Z,102377.03
2022-11-12T17:39:56.926Z,102377.00
2022-11-12T17:42:44.119Z,102389.94
2022-11-12T17:45:36.279Z,102383.56
2022-11-12T17:48:25.071Z,102386.06
2022-11-12T17:51:15.186Z,102386.03
2022-11-12T17:54:02.416Z,102385.13
2022-11-12T17:56:49.474Z,102373.94
2022-11-12T17:59:45.945Z,102384.25
2022-11-12T18:02:34.555Z,102379.56
2022-11-12T18:05:22.059Z,102376.81
2022-11-12T18:08:09.282Z,102373.19
2022-11-12T18:10:56.508Z,102368.00
2022-11-12T18:13:44.083Z,102370.72
2022-11-12T18:16:31.483Z,102375.88
2022-11-12T18:19:20.268Z,102378.66
2022-11-12T18:22:07.761Z,102378.56
2022-11-12T18:24:55.835Z,102374.91
2022-11-12T18:27:43.220Z,102378.00
2022-11-12T18:30:30.604Z,102371.16
2022-11-12T18:33:17.887Z,102382.34
2022-11-12T18:36:09.053Z,102381.38
2022-11-12T18:38:56.941Z,102382.09
2022-11-12T18:41:44.320Z,102374.06
2022-11-12T18:44:31.884Z,102376.47
2022-11-12T18:47:19.320Z,102384.28
2022-11-12T18:50:08.884Z,102389.59
2022-11-12T18:52:57.606Z,102398.38
2022-11-12T18:55:45.247Z,102335.28
2022-11-12T18:58:35.318Z,102402.66
2022-11-12T19:01:25.042Z,102399.19
2022-11-12T19:04:13.678Z,102395.09
2022-11-12T19:07:01.255Z,102398.53
2022-11-12T19:09:49.957Z,102397.53
2022-11-12T19:12:37.664Z,102398.38
2022-11-12T19:15:26.956Z,102401.53
2022-11-12T19:18:14.804Z,102395.78
2022-11-12T19:21:03.631Z,102393.59
2022-11-12T19:23:54.015Z,102399.84
2022-11-12T19:26:43.247Z,102405.28
2022-11-12T19:29:31.957Z,102407.03
2022-11-12T19:32:19.003Z,102404.34
2022-11-12T19:35:09.310Z,102398.00
2022-11-12T19:37:56.537Z,102403.16
2022-11-12T19:40:43.954Z,102401.56
2022-11-12T19:43:33.282Z,102406.03
2022-11-12T19:46:20.808Z,102406.78
2022-11-12T19:49:08.577Z,102408.34
2022-11-12T19:51:55.803Z,102400.47
2022-11-12T19:54:43.337Z,102403.09
2022-11-12T19:57:30.586Z,102401.91
2022-11-12T20:00:19.949Z,102389.47
2022-11-12T20:03:07.512Z,102399.75
2022-11-12T20:06:00.463Z,102395.19
2022-11-12T20:08:48.155Z,102395.03
2022-11-12T20:11:35.601Z,102397.41
2022-11-12T20:14:22.683Z,102395.59
2022-11-12T20:17:11.138Z,102391.84
2022-11-12T20:19:58.529Z,102392.59
2022-11-12T20:22:46.075Z,102404.91
2022-11-12T20:25:33.526Z,102391.69
2022-11-12T20:28:21.667Z,102408.34
2022-11-12T20:31:11.190Z,102401.41
2022-11-12T20:34:00.342Z,102394.56
2022-11-12T20:36:47.506Z,102401.69
2022-11-12T20:39:36.024Z,102398.25
2022-11-12T20:42:23.388Z,102386.19
2022-11-12T20:45:11.322Z,102384.72
2022-11-12T20:47:58.624Z,102384.91
2022-11-12T20:51:09.349Z,102373.59
2022-11-12T20:53:59.361Z,102371.22
2022-11-12T20:56:50.582Z,102369.66
2022-11-12T20:59:41.212Z,102375.00
2022-11-12T21:02:28.654Z,102366.22
2022-11-12T21:05:16.018Z,102367.56
2022-11-12T21:08:05.003Z,102367.25
2022-11-12T21:10:52.497Z,102366.09
2022-11-12T21:13:40.763Z,102364.31
2022-11-12T21:16:28.228Z,102359.84
2022-11-12T21:19:15.281Z,102359.63
2022-11-12T21:22:02.875Z,102359.50
2022-11-12T21:24:51.720Z,102362.03
2022-11-12T21:27:39.069Z,102364.56
2022-11-12T21:30:26.313Z,102369.78
2022-11-12T21:33:14.515Z,102368.91
2022-11-12T21:36:02.344Z,102364.56
2022-11-12T21:38:50.087Z,102366.38
2022-11-12T21:41:38.511Z,102377.72
2022-11-12T21:44:25.579Z,102371.56
2022-11-12T21:47:12.634Z,102362.69
2022-11-12T21:50:00.787Z,102367.06
2022-11-12T21:52:48.152Z,102367.13
2022-11-12T21:55:35.243Z,102362.69
2022-11-12T21:58:23.658Z,102355.66
2022-11-12T22:01:13.179Z,102361.69
2022-11-12T22:04:01.053Z,102363.38
2022-11-12T22:06:48.630Z,102354.50
2022-11-12T22:09:36.032Z,102361.34
2022-11-12T22:12:22.977Z,102358.50
2022-11-12T22:15:12.222Z,102353.34
2022-11-12T22:17:59.963Z,102348.94
2022-11-12T22:20:57.483Z,102344.84
2022-11-12T22:23:44.960Z,102346.16
2022-11-12T22:26:35.143Z,102343.88
2022-11-12T22:29:22.166Z,102340.72
2022-11-12T22:32:10.441Z,102334.06
2022-11-12T22:34:57.666Z,102334.38
2022-11-12T22:37:44.699Z,102335.50
2022-11-12T22:40:31.739Z,102328.69
2022-11-12T22:43:18.788Z,102331.41
2022-11-12T22:46:07.859Z,102334.28
2022-11-12T22:48:57.057Z,102334.53
2022-11-12T22:51:44.011Z,102336.56
2022-11-12T22:54:31.099Z,102328.91
2022-11-12T22:57:18.275Z,102324.75
2022-11-12T23:00:09.455Z,102324.09
2022-11-12T23:02:56.404Z,102316.44
2022-11-12T23:05:44.945Z,102313.25
2022-11-12T23:08:33.011Z,102310.03
2022-11-12T23:11:22.260Z,102306.78
2022-11-12T23:14:09.336Z,102306.13
2022-11-12T23:16:59.045Z,102312.38
2022-11-12T23:19:46.583Z,102310.75
2022-11-12T23:22:35.046Z,102302.16
2022-11-12T23:25:22.474Z,102301.44
2022-11-12T23:28:09.609Z,102292.78
2022-11-12T23:30:56.932Z,102292.06
2022-11-12T23:33:46.533Z,102300.94
2022-11-12T23:36:36.681Z,102293.16
2022-11-12T23:39:25.176Z,102289.72
2022-11-12T23:42:12.258Z,102288.03
2022-11-12T23:44:59.418Z,102282.91
2022-11-12T23:47:46.572Z,102279.44
2022-11-12T23:50:33.518Z,102276.03
2022-11-12T23:53:21.087Z,102273.44
2022-11-12T23:56:11.556Z,102275.22
2022-11-12T23:58:58.913Z,102271.81
